FFM1432 WMSA-WMKP
Flight info
| Callsign | FFM1432 |
|---|---|
| Flight time | 0h 50m |
| Altitude | 12000 |
| Route | ATIMU Y506 TEPUS DCT GORVU |
| Aircraft | AT76/M-SDFGIRY/S |
Departure
| Time | 2026-05-08 17:38 |
|---|---|
| Airport | Sultan Abdul Aziz Shah International Airport (WMSA) |
Arrival
| Time | 2026-05-08 18:28 |
|---|---|
| Airport | Penang International Airport (WMKP) |
| Time | Latitude | Longitude | Altitude | Speed | Heading |
|---|---|---|---|---|---|
| 2026-05-08 17:31 | 3.13229 | 101.55241 | 88 ft | 0 kts | 280° |
| 2026-05-08 17:32 | 3.13229 | 101.55206 | 87 ft | 9 kts | 267° |
| 2026-05-08 17:32 | 3.13230 | 101.55138 | 88 ft | 10 kts | 267° |
| 2026-05-08 17:33 | 3.13179 | 101.55097 | 87 ft | 11 kts | 175° |
| 2026-05-08 17:33 | 3.13113 | 101.55134 | 87 ft | 11 kts | 149° |
| 2026-05-08 17:33 | 3.13042 | 101.55173 | 89 ft | 12 kts | 150° |
| 2026-05-08 17:33 | 3.12968 | 101.55215 | 87 ft | 12 kts | 149° |
| 2026-05-08 17:34 | 3.12895 | 101.55259 | 87 ft | 12 kts | 149° |
| 2026-05-08 17:34 | 3.12822 | 101.55303 | 87 ft | 12 kts | 148° |
| 2026-05-08 17:34 | 3.12748 | 101.55348 | 88 ft | 12 kts | 148° |
| 2026-05-08 17:34 | 3.12673 | 101.55391 | 87 ft | 12 kts | 150° |
| 2026-05-08 17:35 | 3.12601 | 101.55434 | 88 ft | 12 kts | 149° |
| 2026-05-08 17:35 | 3.12537 | 101.55470 | 88 ft | 12 kts | 154° |
| 2026-05-08 17:35 | 3.12462 | 101.55511 | 90 ft | 12 kts | 148° |
| 2026-05-08 17:35 | 3.12388 | 101.55557 | 90 ft | 12 kts | 149° |
| 2026-05-08 17:36 | 3.12334 | 101.55539 | 88 ft | 9 kts | 252° |
| 2026-05-08 17:36 | 3.12358 | 101.55482 | 88 ft | 10 kts | 298° |
| 2026-05-08 17:36 | 3.12391 | 101.55422 | 89 ft | 10 kts | 300° |
| 2026-05-08 17:36 | 3.12426 | 101.55361 | 89 ft | 11 kts | 300° |
| 2026-05-08 17:37 | 3.12457 | 101.55309 | 89 ft | 8 kts | 301° |
| 2026-05-08 17:37 | 3.12478 | 101.55282 | 90 ft | 0 kts | 323° |
| 2026-05-08 17:37 | 3.12500 | 101.55267 | 89 ft | 16 kts | 327° |
| 2026-05-08 17:37 | 3.12781 | 101.55111 | 88 ft | 82 kts | 333° |
| 2026-05-08 17:38 | 3.13455 | 101.54713 | 91 ft | 138 kts | 329° |
| 2026-05-08 17:38 | 3.14285 | 101.54194 | 575 ft | 139 kts | 328° |
| 2026-05-08 17:38 | 3.15143 | 101.53606 | 811 ft | 167 kts | 323° |
| 2026-05-08 17:38 | 3.16165 | 101.52879 | 1007 ft | 187 kts | 326° |
| 2026-05-08 17:39 | 3.17269 | 101.52140 | 1331 ft | 194 kts | 324° |
| 2026-05-08 17:39 | 3.18165 | 101.51120 | 1643 ft | 201 kts | 305° |
| 2026-05-08 17:39 | 3.19055 | 101.49972 | 1957 ft | 214 kts | 308° |
| 2026-05-08 17:39 | 3.20004 | 101.48793 | 2315 ft | 217 kts | 308° |
| 2026-05-08 17:40 | 3.20957 | 101.47628 | 2726 ft | 215 kts | 308° |
| 2026-05-08 17:40 | 3.21908 | 101.46472 | 3151 ft | 215 kts | 308° |
| 2026-05-08 17:40 | 3.22850 | 101.45320 | 3529 ft | 213 kts | 307° |
| 2026-05-08 17:40 | 3.23782 | 101.44179 | 3878 ft | 211 kts | 308° |
| 2026-05-08 17:41 | 3.24735 | 101.43071 | 4197 ft | 210 kts | 311° |
| 2026-05-08 17:41 | 3.25766 | 101.42029 | 4498 ft | 209 kts | 314° |
| 2026-05-08 17:41 | 3.26788 | 101.41000 | 4815 ft | 208 kts | 313° |
| 2026-05-08 17:41 | 3.27780 | 101.39983 | 5120 ft | 207 kts | 313° |
| 2026-05-08 17:42 | 3.28777 | 101.38950 | 5433 ft | 206 kts | 313° |
| 2026-05-08 17:42 | 3.29768 | 101.37918 | 5746 ft | 205 kts | 313° |
| 2026-05-08 17:42 | 3.30753 | 101.36885 | 6063 ft | 205 kts | 313° |
| 2026-05-08 17:42 | 3.31590 | 101.36005 | 6337 ft | 204 kts | 313° |
| 2026-05-08 17:43 | 3.32507 | 101.35036 | 6613 ft | 204 kts | 313° |
| 2026-05-08 17:43 | 3.33481 | 101.34005 | 6914 ft | 203 kts | 313° |
| 2026-05-08 17:43 | 3.34452 | 101.32976 | 7218 ft | 203 kts | 313° |
| 2026-05-08 17:43 | 3.35420 | 101.31951 | 7532 ft | 203 kts | 313° |
| 2026-05-08 17:44 | 3.36386 | 101.30929 | 7847 ft | 202 kts | 313° |
| 2026-05-08 17:44 | 3.37352 | 101.29904 | 8162 ft | 202 kts | 313° |
| 2026-05-08 17:44 | 3.38318 | 101.28876 | 8471 ft | 202 kts | 313° |
| 2026-05-08 17:44 | 3.39278 | 101.27854 | 8793 ft | 201 kts | 313° |
| 2026-05-08 17:45 | 3.40234 | 101.26833 | 9116 ft | 201 kts | 313° |
| 2026-05-08 17:45 | 3.41189 | 101.25812 | 9447 ft | 200 kts | 313° |
| 2026-05-08 17:45 | 3.42036 | 101.24906 | 9626 ft | 206 kts | 313° |
| 2026-05-08 17:45 | 3.43058 | 101.23815 | 9807 ft | 212 kts | 313° |
| 2026-05-08 17:46 | 3.44064 | 101.22742 | 9962 ft | 216 kts | 313° |
| 2026-05-08 17:46 | 3.45120 | 101.21614 | 10128 ft | 220 kts | 313° |
| 2026-05-08 17:46 | 3.46175 | 101.20488 | 10289 ft | 223 kts | 313° |
| 2026-05-08 17:46 | 3.47258 | 101.19356 | 10449 ft | 226 kts | 314° |
| 2026-05-08 17:47 | 3.48365 | 101.18230 | 10611 ft | 228 kts | 314° |
| 2026-05-08 17:47 | 3.49474 | 101.17113 | 10771 ft | 230 kts | 315° |
| 2026-05-08 17:47 | 3.50623 | 101.15960 | 10940 ft | 232 kts | 315° |
| 2026-05-08 17:47 | 3.51378 | 101.15203 | 11050 ft | 232 kts | 315° |
| 2026-05-08 17:48 | 3.52912 | 101.13667 | 11270 ft | 234 kts | 315° |
| 2026-05-08 17:48 | 3.54064 | 101.12514 | 11435 ft | 234 kts | 315° |
| 2026-05-08 17:48 | 3.55219 | 101.11357 | 11602 ft | 235 kts | 315° |
| 2026-05-08 17:48 | 3.56378 | 101.10198 | 11767 ft | 236 kts | 315° |
| 2026-05-08 17:49 | 3.57526 | 101.09049 | 11895 ft | 238 kts | 315° |
| 2026-05-08 17:49 | 3.58726 | 101.07850 | 11951 ft | 243 kts | 315° |
| 2026-05-08 17:49 | 3.59932 | 101.06643 | 11977 ft | 248 kts | 315° |
| 2026-05-08 17:49 | 3.61149 | 101.05425 | 11989 ft | 252 kts | 315° |
| 2026-05-08 17:50 | 3.62402 | 101.04170 | 11994 ft | 256 kts | 315° |
| 2026-05-08 17:50 | 3.63669 | 101.02901 | 11999 ft | 259 kts | 315° |
| 2026-05-08 17:50 | 3.64945 | 101.01621 | 12002 ft | 261 kts | 315° |
| 2026-05-08 17:50 | 3.66233 | 101.00329 | 12002 ft | 262 kts | 315° |
| 2026-05-08 17:51 | 3.67528 | 100.99032 | 12003 ft | 264 kts | 315° |
| 2026-05-08 17:51 | 3.68824 | 100.97730 | 12003 ft | 265 kts | 315° |
| 2026-05-08 17:51 | 3.70126 | 100.96423 | 12005 ft | 265 kts | 315° |
| 2026-05-08 17:51 | 3.71586 | 100.95346 | 12005 ft | 261 kts | 333° |
| 2026-05-08 17:52 | 3.73235 | 100.94564 | 12006 ft | 263 kts | 336° |
| 2026-05-08 17:52 | 3.74936 | 100.93875 | 12006 ft | 264 kts | 340° |
| 2026-05-08 17:52 | 3.78406 | 100.92642 | 12005 ft | 266 kts | 341° |
| 2026-05-08 17:53 | 3.80161 | 100.92041 | 12007 ft | 266 kts | 342° |
| 2026-05-08 17:53 | 3.81917 | 100.91444 | 12011 ft | 266 kts | 342° |
| 2026-05-08 17:53 | 3.83674 | 100.90848 | 12007 ft | 267 kts | 342° |
| 2026-05-08 17:53 | 3.85428 | 100.90252 | 12004 ft | 267 kts | 342° |
| 2026-05-08 17:54 | 3.87184 | 100.89638 | 12009 ft | 267 kts | 340° |
| 2026-05-08 17:54 | 3.88913 | 100.88963 | 12010 ft | 267 kts | 338° |
| 2026-05-08 17:54 | 3.90603 | 100.88254 | 12006 ft | 267 kts | 337° |
| 2026-05-08 17:54 | 3.92310 | 100.87520 | 12008 ft | 267 kts | 337° |
| 2026-05-08 17:55 | 3.94016 | 100.86778 | 12012 ft | 267 kts | 337° |
| 2026-05-08 17:55 | 3.95715 | 100.86034 | 12015 ft | 267 kts | 337° |
| 2026-05-08 17:55 | 3.97416 | 100.85288 | 12010 ft | 267 kts | 337° |
| 2026-05-08 17:55 | 3.99116 | 100.84541 | 12013 ft | 267 kts | 337° |
| 2026-05-08 17:56 | 4.00814 | 100.83794 | 12016 ft | 267 kts | 337° |
| 2026-05-08 17:56 | 4.02515 | 100.83044 | 12018 ft | 267 kts | 337° |
| 2026-05-08 17:56 | 4.04208 | 100.82297 | 12017 ft | 267 kts | 337° |
| 2026-05-08 17:56 | 4.05914 | 100.81544 | 12018 ft | 267 kts | 337° |
| 2026-05-08 17:57 | 4.07615 | 100.80792 | 12024 ft | 267 kts | 337° |
| 2026-05-08 17:57 | 4.09312 | 100.80042 | 12021 ft | 267 kts | 337° |
| 2026-05-08 17:57 | 4.11015 | 100.79288 | 12026 ft | 267 kts | 337° |
| 2026-05-08 17:57 | 4.12712 | 100.78537 | 12026 ft | 267 kts | 337° |
| 2026-05-08 17:58 | 4.14412 | 100.77784 | 12027 ft | 267 kts | 337° |
| 2026-05-08 17:58 | 4.16110 | 100.77030 | 12025 ft | 267 kts | 337° |
| 2026-05-08 17:58 | 4.17811 | 100.76274 | 12029 ft | 267 kts | 337° |
| 2026-05-08 17:58 | 4.19506 | 100.75520 | 12030 ft | 267 kts | 337° |
| 2026-05-08 17:59 | 4.21182 | 100.74775 | 12026 ft | 267 kts | 337° |
| 2026-05-08 17:59 | 4.22893 | 100.74012 | 12027 ft | 267 kts | 337° |
| 2026-05-08 17:59 | 4.24579 | 100.73259 | 12028 ft | 267 kts | 337° |
| 2026-05-08 17:59 | 4.26238 | 100.72517 | 12031 ft | 267 kts | 337° |
| 2026-05-08 18:00 | 4.27958 | 100.71746 | 12027 ft | 267 kts | 337° |
| 2026-05-08 18:00 | 4.31353 | 100.70224 | 12030 ft | 267 kts | 337° |
| 2026-05-08 18:00 | 4.33052 | 100.69461 | 12032 ft | 267 kts | 337° |
| 2026-05-08 18:01 | 4.34747 | 100.68699 | 12026 ft | 268 kts | 337° |
| 2026-05-08 18:01 | 4.36438 | 100.67936 | 12023 ft | 268 kts | 337° |
| 2026-05-08 18:01 | 4.38146 | 100.67166 | 12020 ft | 268 kts | 337° |
| 2026-05-08 18:01 | 4.39832 | 100.66403 | 12020 ft | 268 kts | 336° |
| 2026-05-08 18:02 | 4.41522 | 100.65603 | 12021 ft | 268 kts | 335° |
| 2026-05-08 18:02 | 4.42641 | 100.65059 | 12025 ft | 268 kts | 335° |
| 2026-05-08 18:02 | 4.44873 | 100.63962 | 12027 ft | 267 kts | 335° |
| 2026-05-08 18:02 | 4.46545 | 100.63135 | 12025 ft | 268 kts | 335° |
| 2026-05-08 18:03 | 4.48214 | 100.62308 | 12022 ft | 268 kts | 335° |
| 2026-05-08 18:03 | 4.49882 | 100.61480 | 12021 ft | 268 kts | 335° |
| 2026-05-08 18:03 | 4.51525 | 100.60665 | 12018 ft | 268 kts | 335° |
| 2026-05-08 18:03 | 4.53216 | 100.59823 | 12018 ft | 267 kts | 335° |
| 2026-05-08 18:04 | 4.54878 | 100.58995 | 12017 ft | 268 kts | 335° |
| 2026-05-08 18:04 | 4.56550 | 100.58162 | 12021 ft | 268 kts | 335° |
| 2026-05-08 18:04 | 4.58218 | 100.57330 | 12017 ft | 268 kts | 335° |
| 2026-05-08 18:04 | 4.59889 | 100.56498 | 12018 ft | 268 kts | 335° |
| 2026-05-08 18:05 | 4.61573 | 100.55661 | 11859 ft | 274 kts | 335° |
| 2026-05-08 18:05 | 4.63276 | 100.54817 | 11702 ft | 278 kts | 335° |
| 2026-05-08 18:05 | 4.65017 | 100.53957 | 11533 ft | 281 kts | 335° |
| 2026-05-08 18:05 | 4.66782 | 100.53103 | 11374 ft | 282 kts | 336° |
| 2026-05-08 18:06 | 4.68576 | 100.52294 | 11207 ft | 283 kts | 337° |
| 2026-05-08 18:06 | 4.70383 | 100.51504 | 11049 ft | 284 kts | 338° |
| 2026-05-08 18:06 | 4.72198 | 100.50720 | 10885 ft | 284 kts | 338° |
| 2026-05-08 18:06 | 4.74016 | 100.49939 | 10727 ft | 284 kts | 338° |
| 2026-05-08 18:07 | 4.75846 | 100.49189 | 10559 ft | 284 kts | 339° |
| 2026-05-08 18:07 | 4.77684 | 100.48461 | 10407 ft | 284 kts | 339° |
| 2026-05-08 18:07 | 4.79525 | 100.47742 | 10256 ft | 284 kts | 340° |
| 2026-05-08 18:07 | 4.81367 | 100.47028 | 10097 ft | 283 kts | 340° |
| 2026-05-08 18:08 | 4.83156 | 100.46228 | 9933 ft | 282 kts | 327° |
| 2026-05-08 18:08 | 4.84559 | 100.44875 | 9781 ft | 279 kts | 313° |
| 2026-05-08 18:08 | 4.85787 | 100.43364 | 9613 ft | 280 kts | 307° |
| 2026-05-08 18:08 | 4.86911 | 100.41760 | 9445 ft | 281 kts | 305° |
| 2026-05-08 18:09 | 4.88024 | 100.40153 | 9257 ft | 281 kts | 305° |
| 2026-05-08 18:09 | 4.89122 | 100.38564 | 9137 ft | 280 kts | 305° |
| 2026-05-08 18:09 | 4.90222 | 100.36965 | 9070 ft | 277 kts | 305° |
| 2026-05-08 18:09 | 4.91299 | 100.35396 | 9043 ft | 273 kts | 305° |
| 2026-05-08 18:10 | 4.92378 | 100.33823 | 9023 ft | 271 kts | 304° |
| 2026-05-08 18:10 | 4.93443 | 100.32271 | 9021 ft | 268 kts | 304° |
| 2026-05-08 18:10 | 4.94496 | 100.30737 | 9017 ft | 267 kts | 304° |
| 2026-05-08 18:10 | 4.95537 | 100.29221 | 9018 ft | 265 kts | 304° |
| 2026-05-08 18:11 | 4.96596 | 100.27691 | 9017 ft | 264 kts | 306° |
| 2026-05-08 18:11 | 4.97682 | 100.26208 | 9021 ft | 264 kts | 307° |
| 2026-05-08 18:11 | 4.98787 | 100.24737 | 9016 ft | 264 kts | 307° |
| 2026-05-08 18:11 | 4.99900 | 100.23275 | 9015 ft | 263 kts | 308° |
| 2026-05-08 18:12 | 5.01014 | 100.21816 | 9014 ft | 264 kts | 308° |
| 2026-05-08 18:12 | 5.02131 | 100.20357 | 9009 ft | 263 kts | 308° |
| 2026-05-08 18:12 | 5.03370 | 100.19218 | 9007 ft | 259 kts | 333° |
| 2026-05-08 18:12 | 5.05103 | 100.18854 | 8897 ft | 262 kts | 5° |
| 2026-05-08 18:13 | 5.06811 | 100.19486 | 8733 ft | 264 kts | 37° |
| 2026-05-08 18:13 | 5.08150 | 100.20752 | 8574 ft | 266 kts | 47° |
| 2026-05-08 18:13 | 5.09359 | 100.22163 | 8414 ft | 269 kts | 52° |
| 2026-05-08 18:13 | 5.10526 | 100.23646 | 8249 ft | 271 kts | 53° |
| 2026-05-08 18:14 | 5.11673 | 100.25151 | 8090 ft | 272 kts | 53° |
| 2026-05-08 18:14 | 5.12812 | 100.26668 | 7924 ft | 273 kts | 53° |
| 2026-05-08 18:14 | 5.13998 | 100.28155 | 7773 ft | 272 kts | 49° |
| 2026-05-08 18:14 | 5.15279 | 100.29540 | 7680 ft | 270 kts | 47° |
| 2026-05-08 18:15 | 5.16135 | 100.30436 | 7636 ft | 268 kts | 46° |
| 2026-05-08 18:15 | 5.17475 | 100.31731 | 7563 ft | 267 kts | 42° |
| 2026-05-08 18:15 | 5.18875 | 100.32946 | 7473 ft | 266 kts | 41° |
| 2026-05-08 18:15 | 5.20278 | 100.34130 | 7301 ft | 269 kts | 40° |
| 2026-05-08 18:16 | 5.21745 | 100.35355 | 7110 ft | 271 kts | 40° |
| 2026-05-08 18:16 | 5.23197 | 100.36563 | 6921 ft | 272 kts | 40° |
| 2026-05-08 18:16 | 5.24610 | 100.37778 | 6738 ft | 272 kts | 41° |
| 2026-05-08 18:16 | 5.26063 | 100.39052 | 6554 ft | 273 kts | 41° |
| 2026-05-08 18:17 | 5.27477 | 100.40304 | 6371 ft | 273 kts | 41° |
| 2026-05-08 18:17 | 5.28908 | 100.41576 | 6181 ft | 273 kts | 41° |
| 2026-05-08 18:17 | 5.30310 | 100.42824 | 5986 ft | 273 kts | 42° |
| 2026-05-08 18:17 | 5.31726 | 100.44087 | 5837 ft | 271 kts | 41° |
| 2026-05-08 18:18 | 5.33107 | 100.45340 | 5691 ft | 269 kts | 43° |
| 2026-05-08 18:18 | 5.34458 | 100.46637 | 5537 ft | 264 kts | 44° |
| 2026-05-08 18:18 | 5.35759 | 100.47912 | 5397 ft | 260 kts | 44° |
| 2026-05-08 18:18 | 5.37042 | 100.49180 | 5251 ft | 258 kts | 45° |
| 2026-05-08 18:19 | 5.38319 | 100.50450 | 5005 ft | 257 kts | 45° |
| 2026-05-08 18:19 | 5.39571 | 100.51706 | 4742 ft | 251 kts | 45° |
| 2026-05-08 18:19 | 5.40795 | 100.52923 | 4464 ft | 244 kts | 43° |
| 2026-05-08 18:19 | 5.42218 | 100.53715 | 4201 ft | 238 kts | 11° |
| 2026-05-08 18:20 | 5.43844 | 100.53538 | 3925 ft | 233 kts | 335° |
| 2026-05-08 18:20 | 5.45012 | 100.52481 | 3662 ft | 226 kts | 301° |
| 2026-05-08 18:20 | 5.45696 | 100.51094 | 3406 ft | 219 kts | 294° |
| 2026-05-08 18:20 | 5.46297 | 100.49732 | 3240 ft | 211 kts | 292° |
| 2026-05-08 18:21 | 5.46843 | 100.48398 | 3067 ft | 201 kts | 291° |
| 2026-05-08 18:21 | 5.47348 | 100.47114 | 2889 ft | 194 kts | 289° |
| 2026-05-08 18:21 | 5.47368 | 100.45824 | 2710 ft | 186 kts | 246° |
| 2026-05-08 18:21 | 5.46703 | 100.44799 | 2607 ft | 172 kts | 233° |
| 2026-05-08 18:22 | 5.45993 | 100.43863 | 2546 ft | 161 kts | 231° |
| 2026-05-08 18:22 | 5.45316 | 100.43008 | 2513 ft | 152 kts | 230° |
| 2026-05-08 18:22 | 5.44678 | 100.42215 | 2502 ft | 147 kts | 230° |
| 2026-05-08 18:22 | 5.44032 | 100.41426 | 2496 ft | 146 kts | 230° |
| 2026-05-08 18:23 | 5.43399 | 100.40654 | 2507 ft | 137 kts | 230° |
| 2026-05-08 18:23 | 5.42798 | 100.39921 | 2500 ft | 134 kts | 230° |
| 2026-05-08 18:23 | 5.42208 | 100.39203 | 2498 ft | 133 kts | 230° |
| 2026-05-08 18:23 | 5.41597 | 100.38528 | 2496 ft | 131 kts | 224° |
| 2026-05-08 18:24 | 5.40932 | 100.37885 | 2495 ft | 131 kts | 221° |
| 2026-05-08 18:24 | 5.40261 | 100.37284 | 2492 ft | 128 kts | 220° |
| 2026-05-08 18:24 | 5.39593 | 100.36700 | 2489 ft | 126 kts | 220° |
| 2026-05-08 18:24 | 5.38937 | 100.36133 | 2499 ft | 125 kts | 220° |
| 2026-05-08 18:25 | 5.38235 | 100.35585 | 2325 ft | 128 kts | 214° |
| 2026-05-08 18:25 | 5.37518 | 100.35085 | 2081 ft | 121 kts | 214° |
| 2026-05-08 18:25 | 5.36853 | 100.34596 | 1879 ft | 116 kts | 218° |
| 2026-05-08 18:25 | 5.36234 | 100.34037 | 1700 ft | 121 kts | 223° |
| 2026-05-08 18:26 | 5.35678 | 100.33437 | 1602 ft | 122 kts | 228° |
| 2026-05-08 18:26 | 5.35141 | 100.32775 | 1484 ft | 123 kts | 231° |
| 2026-05-08 18:26 | 5.34657 | 100.32063 | 1354 ft | 124 kts | 236° |
| 2026-05-08 18:26 | 5.34174 | 100.31380 | 1146 ft | 118 kts | 227° |
| 2026-05-08 18:27 | 5.33752 | 100.30985 | 999 ft | 116 kts | 216° |
| 2026-05-08 18:27 | 5.33262 | 100.30665 | 861 ft | 120 kts | 210° |
| 2026-05-08 18:27 | 5.32314 | 100.30048 | 612 ft | 122 kts | 217° |
| 2026-05-08 18:27 | 5.31674 | 100.29493 | 334 ft | 123 kts | 224° |
| 2026-05-08 18:28 | 5.31054 | 100.28914 | 108 ft | 119 kts | 224° |
| 2026-05-08 18:28 | 5.30473 | 100.28380 | 21 ft | 105 kts | 222° |
| 2026-05-08 18:28 | 5.30180 | 100.28106 | 21 ft | 26 kts | 222° |
| 2026-05-08 18:28 | 5.30148 | 100.28043 | 22 ft | 9 kts | 281° |
| 2026-05-08 18:29 | 5.30189 | 100.27989 | 21 ft | 11 kts | 313° |
| 2026-05-08 18:29 | 5.30235 | 100.27925 | 20 ft | 11 kts | 276° |
| 2026-05-08 18:29 | 5.30184 | 100.27860 | 19 ft | 13 kts | 220° |
| 2026-05-08 18:29 | 5.30115 | 100.27791 | 19 ft | 15 kts | 227° |
| 2026-05-08 18:30 | 5.30039 | 100.27717 | 20 ft | 16 kts | 223° |
| 2026-05-08 18:30 | 5.29899 | 100.27580 | 19 ft | 47 kts | 226° |
| 2026-05-08 18:30 | 5.29665 | 100.27369 | 19 ft | 42 kts | 223° |
| 2026-05-08 18:30 | 5.29481 | 100.27205 | 20 ft | 31 kts | 222° |
| 2026-05-08 18:31 | 5.29350 | 100.27085 | 19 ft | 17 kts | 246° |
| 2026-05-08 18:31 | 5.29389 | 100.26985 | 19 ft | 15 kts | 312° |
| 2026-05-08 18:31 | 5.29406 | 100.26893 | 19 ft | 13 kts | 296° |
| 2026-05-08 18:31 | 5.29463 | 100.26824 | 19 ft | 13 kts | 308° |
| 2026-05-08 18:32 | 5.29504 | 100.26764 | 19 ft | 7 kts | 273° |
| 2026-05-08 18:32 | 5.29470 | 100.26762 | 19 ft | 6 kts | 131° |
| 2026-05-08 18:32 | 5.29464 | 100.26770 | 19 ft | 0 kts | 130° |